sensor_id;sensor_type;location;lat;lon;timestamp;temperature;humidity
57753;DHT22;43583;53.132;6.574;2023-09-18T00:00:15;15.70;99.90
57753;DHT22;43583;53.132;6.574;2023-09-18T00:02:40;15.70;99.90
57753;DHT22;43583;53.132;6.574;2023-09-18T00:05:06;15.70;99.90
57753;DHT22;43583;53.132;6.574;2023-09-18T00:07:32;15.70;99.90
57753;DHT22;43583;53.132;6.574;2023-09-18T00:09:57;15.70;99.90
57753;DHT22;43583;53.132;6.574;2023-09-18T00:12:23;15.80;99.90
57753;DHT22;43583;53.132;6.574;2023-09-18T00:14:49;15.80;99.90
57753;DHT22;43583;53.132;6.574;2023-09-18T00:17:15;15.80;99.90
57753;DHT22;43583;53.132;6.574;2023-09-18T00:19:42;15.80;99.90
57753;DHT22;43583;53.132;6.574;2023-09-18T00:22:08;15.80;99.90
57753;DHT22;43583;53.132;6.574;2023-09-18T00:24:34;15.80;99.90
57753;DHT22;43583;53.132;6.574;2023-09-18T00:26:59;15.90;99.90
57753;DHT22;43583;53.132;6.574;2023-09-18T00:29:25;16.00;99.90
57753;DHT22;43583;53.132;6.574;2023-09-18T00:31:51;16.00;99.90
57753;DHT22;43583;53.132;6.574;2023-09-18T00:34:16;16.10;99.90
57753;DHT22;43583;53.132;6.574;2023-09-18T00:36:42;16.10;99.90
57753;DHT22;43583;53.132;6.574;2023-09-18T00:39:08;16.10;99.90
57753;DHT22;43583;53.132;6.574;2023-09-18T00:41:33;16.20;99.90
57753;DHT22;43583;53.132;6.574;2023-09-18T00:43:59;16.20;99.90
57753;DHT22;43583;53.132;6.574;2023-09-18T00:46:25;16.20;99.90
57753;DHT22;43583;53.132;6.574;2023-09-18T00:48:52;16.20;99.90
57753;DHT22;43583;53.132;6.574;2023-09-18T00:51:19;16.30;99.90
57753;DHT22;43583;53.132;6.574;2023-09-18T00:53:46;16.30;99.90
57753;DHT22;43583;53.132;6.574;2023-09-18T00:56:14;16.30;99.90
57753;DHT22;43583;53.132;6.574;2023-09-18T00:58:40;16.40;99.90
57753;DHT22;43583;53.132;6.574;2023-09-18T01:01:06;16.40;99.90
57753;DHT22;43583;53.132;6.574;2023-09-18T01:03:31;16.40;99.90
57753;DHT22;43583;53.132;6.574;2023-09-18T01:05:57;16.50;99.90
57753;DHT22;43583;53.132;6.574;2023-09-18T01:08:24;16.60;99.90
57753;DHT22;43583;53.132;6.574;2023-09-18T01:14:10;16.70;99.90
57753;DHT22;43583;53.132;6.574;2023-09-18T01:16:50;16.70;99.90
57753;DHT22;43583;53.132;6.574;2023-09-18T01:19:16;16.70;99.90
57753;DHT22;43583;53.132;6.574;2023-09-18T01:21:44;16.70;99.90
57753;DHT22;43583;53.132;6.574;2023-09-18T01:24:10;16.80;99.90
57753;DHT22;43583;53.132;6.574;2023-09-18T01:26:36;16.80;99.90
57753;DHT22;43583;53.132;6.574;2023-09-18T01:29:02;16.80;99.90
57753;DHT22;43583;53.132;6.574;2023-09-18T01:31:28;16.70;99.90
57753;DHT22;43583;53.132;6.574;2023-09-18T01:33:54;16.70;99.90
57753;DHT22;43583;53.132;6.574;2023-09-18T01:36:21;16.70;99.90
57753;DHT22;43583;53.132;6.574;2023-09-18T01:38:47;16.70;99.90
57753;DHT22;43583;53.132;6.574;2023-09-18T01:41:14;16.80;99.90
57753;DHT22;43583;53.132;6.574;2023-09-18T01:43:39;16.70;99.90
57753;DHT22;43583;53.132;6.574;2023-09-18T01:46:05;16.70;99.90
57753;DHT22;43583;53.132;6.574;2023-09-18T01:48:31;16.70;99.90
57753;DHT22;43583;53.132;6.574;2023-09-18T01:50:57;16.70;99.90
57753;DHT22;43583;53.132;6.574;2023-09-18T01:53:23;16.70;99.90
57753;DHT22;43583;53.132;6.574;2023-09-18T01:55:49;16.80;99.90
57753;DHT22;43583;53.132;6.574;2023-09-18T01:58:15;16.80;99.90
57753;DHT22;43583;53.132;6.574;2023-09-18T02:00:41;16.80;99.90
57753;DHT22;43583;53.132;6.574;2023-09-18T02:03:07;16.80;99.90
57753;DHT22;43583;53.132;6.574;2023-09-18T02:05:32;16.80;99.90
57753;DHT22;43583;53.132;6.574;2023-09-18T02:07:58;16.90;99.90
57753;DHT22;43583;53.132;6.574;2023-09-18T02:10:24;16.90;99.90
57753;DHT22;43583;53.132;6.574;2023-09-18T02:12:49;16.90;99.90
57753;DHT22;43583;53.132;6.574;2023-09-18T02:15:15;16.90;99.90
57753;DHT22;43583;53.132;6.574;2023-09-18T02:17:42;16.90;99.90
57753;DHT22;43583;53.132;6.574;2023-09-18T02:20:08;17.00;99.90
57753;DHT22;43583;53.132;6.574;2023-09-18T02:22:37;17.00;99.90
57753;DHT22;43583;53.132;6.574;2023-09-18T02:25:06;17.00;99.90
57753;DHT22;43583;53.132;6.574;2023-09-18T02:27:31;16.90;99.90
57753;DHT22;43583;53.132;6.574;2023-09-18T02:29:57;16.90;99.90
57753;DHT22;43583;53.132;6.574;2023-09-18T02:32:23;16.90;99.90
57753;DHT22;43583;53.132;6.574;2023-09-18T02:34:49;16.90;99.90
57753;DHT22;43583;53.132;6.574;2023-09-18T02:37:14;16.90;99.90
57753;DHT22;43583;53.132;6.574;2023-09-18T02:39:40;16.90;99.90
57753;DHT22;43583;53.132;6.574;2023-09-18T02:42:06;16.90;99.90
57753;DHT22;43583;53.132;6.574;2023-09-18T02:44:32;16.90;99.90
57753;DHT22;43583;53.132;6.574;2023-09-18T02:46:57;16.90;99.90
57753;DHT22;43583;53.132;6.574;2023-09-18T02:49:23;17.00;99.90
57753;DHT22;43583;53.132;6.574;2023-09-18T02:51:49;17.00;99.90
57753;DHT22;43583;53.132;6.574;2023-09-18T02:54:15;17.10;99.90
57753;DHT22;43583;53.132;6.574;2023-09-18T02:56:41;17.10;99.90
57753;DHT22;43583;53.132;6.574;2023-09-18T02:59:06;17.10;99.90
57753;DHT22;43583;53.132;6.574;2023-09-18T03:01:32;17.20;99.90
57753;DHT22;43583;53.132;6.574;2023-09-18T03:03:58;17.20;99.90
57753;DHT22;43583;53.132;6.574;2023-09-18T03:06:23;17.20;99.90
57753;DHT22;43583;53.132;6.574;2023-09-18T03:08:49;17.20;99.90
57753;DHT22;43583;53.132;6.574;2023-09-18T03:11:15;17.30;99.90
57753;DHT22;43583;53.132;6.574;2023-09-18T03:13:45;17.30;99.90
57753;DHT22;43583;53.132;6.574;2023-09-18T03:16:14;17.30;99.90
57753;DHT22;43583;53.132;6.574;2023-09-18T03:18:40;17.40;99.90
57753;DHT22;43583;53.132;6.574;2023-09-18T03:21:06;17.40;99.90
57753;DHT22;43583;53.132;6.574;2023-09-18T03:23:32;17.40;99.90
57753;DHT22;43583;53.132;6.574;2023-09-18T03:25:57;17.40;99.90
57753;DHT22;43583;53.132;6.574;2023-09-18T03:28:25;17.40;99.90
57753;DHT22;43583;53.132;6.574;2023-09-18T03:30:53;17.50;99.90
57753;DHT22;43583;53.132;6.574;2023-09-18T03:33:20;17.40;99.90
57753;DHT22;43583;53.132;6.574;2023-09-18T03:35:50;17.40;99.90
57753;DHT22;43583;53.132;6.574;2023-09-18T03:38:16;17.30;99.90
57753;DHT22;43583;53.132;6.574;2023-09-18T03:40:42;17.30;99.90
57753;DHT22;43583;53.132;6.574;2023-09-18T03:43:09;17.30;99.90
57753;DHT22;43583;53.132;6.574;2023-09-18T03:45:35;17.30;99.90
57753;DHT22;43583;53.132;6.574;2023-09-18T03:48:01;17.20;99.90
57753;DHT22;43583;53.132;6.574;2023-09-18T03:50:27;17.20;99.90
57753;DHT22;43583;53.132;6.574;2023-09-18T03:52:52;17.20;99.90
57753;DHT22;43583;53.132;6.574;2023-09-18T03:55:21;17.20;99.90
57753;DHT22;43583;53.132;6.574;2023-09-18T03:57:46;17.20;99.90
57753;DHT22;43583;53.132;6.574;2023-09-18T04:00:14;17.20;99.90
57753;DHT22;43583;53.132;6.574;2023-09-18T04:02:41;17.20;99.90
57753;DHT22;43583;53.132;6.574;2023-09-18T04:05:07;17.20;99.90
57753;DHT22;43583;53.132;6.574;2023-09-18T04:07:33;17.20;99.90
57753;DHT22;43583;53.132;6.574;2023-09-18T04:09:59;17.20;99.90
57753;DHT22;43583;53.132;6.574;2023-09-18T04:12:25;17.10;99.90
57753;DHT22;43583;53.132;6.574;2023-09-18T04:14:51;17.10;99.90
57753;DHT22;43583;53.132;6.574;2023-09-18T04:17:16;17.20;99.90
57753;DHT22;43583;53.132;6.574;2023-09-18T04:19:42;17.10;99.90
57753;DHT22;43583;53.132;6.574;2023-09-18T04:22:11;17.20;99.90
57753;DHT22;43583;53.132;6.574;2023-09-18T04:24:39;17.10;99.90
57753;DHT22;43583;53.132;6.574;2023-09-18T04:27:08;17.20;99.90
57753;DHT22;43583;53.132;6.574;2023-09-18T04:29:35;17.20;99.90
57753;DHT22;43583;53.132;6.574;2023-09-18T04:32:03;17.20;99.90
57753;DHT22;43583;53.132;6.574;2023-09-18T04:34:29;17.20;99.90
57753;DHT22;43583;53.132;6.574;2023-09-18T04:36:55;17.20;99.90
57753;DHT22;43583;53.132;6.574;2023-09-18T04:39:21;17.20;99.90
57753;DHT22;43583;53.132;6.574;2023-09-18T04:41:47;17.20;99.90
57753;DHT22;43583;53.132;6.574;2023-09-18T04:44:13;17.20;99.90
57753;DHT22;43583;53.132;6.574;2023-09-18T04:46:40;17.20;99.90
57753;DHT22;43583;53.132;6.574;2023-09-18T04:49:07;17.20;99.90
57753;DHT22;43583;53.132;6.574;2023-09-18T04:51:33;17.20;99.90
57753;DHT22;43583;53.132;6.574;2023-09-18T04:53:59;17.30;99.90
57753;DHT22;43583;53.132;6.574;2023-09-18T04:56:28;17.30;99.90
57753;DHT22;43583;53.132;6.574;2023-09-18T04:58:56;17.30;99.90
57753;DHT22;43583;53.132;6.574;2023-09-18T05:01:24;17.30;99.90
57753;DHT22;43583;53.132;6.574;2023-09-18T05:03:50;17.30;99.90
57753;DHT22;43583;53.132;6.574;2023-09-18T08:08:03;18.50;99.90
57753;DHT22;43583;53.132;6.574;2023-09-18T08:15:16;18.60;99.90
57753;DHT22;43583;53.132;6.574;2023-09-18T08:17:42;18.50;99.90
57753;DHT22;43583;53.132;6.574;2023-09-18T08:20:09;18.60;99.90
57753;DHT22;43583;53.132;6.574;2023-09-18T08:22:38;18.60;99.90
57753;DHT22;43583;53.132;6.574;2023-09-18T08:25:04;18.60;99.90
57753;DHT22;43583;53.132;6.574;2023-09-18T08:27:31;18.70;99.90
57753;DHT22;43583;53.132;6.574;2023-09-18T08:30:06;18.60;99.90
57753;DHT22;43583;53.132;6.574;2023-09-18T08:32:32;18.60;99.90
57753;DHT22;43583;53.132;6.574;2023-09-18T08:34:59;18.70;99.90
57753;DHT22;43583;53.132;6.574;2023-09-18T08:37:26;18.70;99.90
57753;DHT22;43583;53.132;6.574;2023-09-18T08:39:52;18.70;99.90
57753;DHT22;43583;53.132;6.574;2023-09-18T08:42:19;18.70;99.90
57753;DHT22;43583;53.132;6.574;2023-09-18T08:44:49;18.70;99.90
57753;DHT22;43583;53.132;6.574;2023-09-18T08:47:16;18.70;99.90
57753;DHT22;43583;53.132;6.574;2023-09-18T08:49:42;18.80;99.90
57753;DHT22;43583;53.132;6.574;2023-09-18T08:52:08;18.90;99.90
57753;DHT22;43583;53.132;6.574;2023-09-18T08:54:35;19.00;99.90
57753;DHT22;43583;53.132;6.574;2023-09-18T08:57:00;19.10;99.90
57753;DHT22;43583;53.132;6.574;2023-09-18T08:59:26;19.20;99.90
57753;DHT22;43583;53.132;6.574;2023-09-18T09:01:53;19.30;99.90
57753;DHT22;43583;53.132;6.574;2023-09-18T09:04:21;19.30;99.90
57753;DHT22;43583;53.132;6.574;2023-09-18T09:06:48;19.30;99.90
57753;DHT22;43583;53.132;6.574;2023-09-18T09:09:14;19.40;99.90
57753;DHT22;43583;53.132;6.574;2023-09-18T09:11:48;19.40;99.90
57753;DHT22;43583;53.132;6.574;2023-09-18T09:14:14;19.40;99.90
57753;DHT22;43583;53.132;6.574;2023-09-18T09:16:48;19.30;99.90
57753;DHT22;43583;53.132;6.574;2023-09-18T09:19:16;19.30;99.90
57753;DHT22;43583;53.132;6.574;2023-09-18T09:21:43;19.30;99.90
57753;DHT22;43583;53.132;6.574;2023-09-18T09:24:10;19.30;99.90
57753;DHT22;43583;53.132;6.574;2023-09-18T09:26:40;19.30;99.90
57753;DHT22;43583;53.132;6.574;2023-09-18T09:29:17;19.30;99.90
57753;DHT22;43583;53.132;6.574;2023-09-18T09:31:44;19.40;99.90
57753;DHT22;43583;53.132;6.574;2023-09-18T09:34:11;19.40;99.90
57753;DHT22;43583;53.132;6.574;2023-09-18T09:36:36;19.40;99.90
57753;DHT22;43583;53.132;6.574;2023-09-18T09:39:16;19.50;99.90
57753;DHT22;43583;53.132;6.574;2023-09-18T09:41:45;19.70;99.90
57753;DHT22;43583;53.132;6.574;2023-09-18T09:44:16;19.90;99.90
57753;DHT22;43583;53.132;6.574;2023-09-18T09:46:48;20.10;99.90
57753;DHT22;43583;53.132;6.574;2023-09-18T09:49:15;20.20;99.90
57753;DHT22;43583;53.132;6.574;2023-09-18T09:51:45;20.20;99.90
57753;DHT22;43583;53.132;6.574;2023-09-18T09:54:19;20.20;99.90
57753;DHT22;43583;53.132;6.574;2023-09-18T09:56:56;20.20;99.90
57753;DHT22;43583;53.132;6.574;2023-09-18T09:59:28;20.20;99.90
57753;DHT22;43583;53.132;6.574;2023-09-18T10:01:55;20.20;99.90
57753;DHT22;43583;53.132;6.574;2023-09-18T10:04:26;20.30;99.90
57753;DHT22;43583;53.132;6.574;2023-09-18T10:07:02;20.30;99.90
57753;DHT22;43583;53.132;6.574;2023-09-18T10:09:34;20.40;99.90
57753;DHT22;43583;53.132;6.574;2023-09-18T10:12:01;20.70;99.90
57753;DHT22;43583;53.132;6.574;2023-09-18T10:14:35;20.80;99.90
57753;DHT22;43583;53.132;6.574;2023-09-18T10:17:16;20.90;99.90
57753;DHT22;43583;53.132;6.574;2023-09-18T10:19:54;21.00;99.90
57753;DHT22;43583;53.132;6.574;2023-09-18T10:22:37;21.10;99.90
57753;DHT22;43583;53.132;6.574;2023-09-18T10:25:14;21.20;99.90
57753;DHT22;43583;53.132;6.574;2023-09-18T10:27:47;21.40;99.90
57753;DHT22;43583;53.132;6.574;2023-09-18T10:30:24;21.70;99.90
57753;DHT22;43583;53.132;6.574;2023-09-18T10:32:51;21.90;99.90
57753;DHT22;43583;53.132;6.574;2023-09-18T10:35:17;22.00;99.90
57753;DHT22;43583;53.132;6.574;2023-09-18T10:37:46;22.30;99.90
57753;DHT22;43583;53.132;6.574;2023-09-18T10:40:13;22.30;99.90
57753;DHT22;43583;53.132;6.574;2023-09-18T10:42:41;22.30;99.90
57753;DHT22;43583;53.132;6.574;2023-09-18T10:45:08;22.40;99.90
57753;DHT22;43583;53.132;6.574;2023-09-18T10:47:44;22.50;99.90
57753;DHT22;43583;53.132;6.574;2023-09-18T10:50:11;22.80;99.90
57753;DHT22;43583;53.132;6.574;2023-09-18T10:52:44;23.10;99.90
57753;DHT22;43583;53.132;6.574;2023-09-18T10:55:12;23.20;99.90
57753;DHT22;43583;53.132;6.574;2023-09-18T10:57:50;23.30;99.90
57753;DHT22;43583;53.132;6.574;2023-09-18T11:00:17;23.40;99.90
57753;DHT22;43583;53.132;6.574;2023-09-18T11:02:50;23.20;99.90
57753;DHT22;43583;53.132;6.574;2023-09-18T11:05:29;23.00;99.90
57753;DHT22;43583;53.132;6.574;2023-09-18T11:11:10;22.80;99.90
57753;DHT22;43583;53.132;6.574;2023-09-18T11:13:44;22.90;99.90
57753;DHT22;43583;53.132;6.574;2023-09-18T11:16:17;22.80;99.90
57753;DHT22;43583;53.132;6.574;2023-09-18T11:19:05;22.80;99.90
57753;DHT22;43583;53.132;6.574;2023-09-18T11:21:33;22.70;99.90
57753;DHT22;43583;53.132;6.574;2023-09-18T11:24:17;22.70;99.90
57753;DHT22;43583;53.132;6.574;2023-09-18T11:26:45;22.50;99.90
57753;DHT22;43583;53.132;6.574;2023-09-18T11:29:13;22.40;99.90
57753;DHT22;43583;53.132;6.574;2023-09-18T11:31:49;22.60;99.90
57753;DHT22;43583;53.132;6.574;2023-09-18T11:34:25;22.80;99.90
57753;DHT22;43583;53.132;6.574;2023-09-18T11:36:54;23.00;99.90
57753;DHT22;43583;53.132;6.574;2023-09-18T11:39:37;23.00;99.90
57753;DHT22;43583;53.132;6.574;2023-09-18T11:44:35;23.20;99.90
57753;DHT22;43583;53.132;6.574;2023-09-18T11:47:08;23.00;99.90
57753;DHT22;43583;53.132;6.574;2023-09-18T11:49:38;23.00;99.90
57753;DHT22;43583;53.132;6.574;2023-09-18T11:52:07;22.90;99.90
57753;DHT22;43583;53.132;6.574;2023-09-18T11:54:33;22.90;99.90
57753;DHT22;43583;53.132;6.574;2023-09-18T11:57:05;22.80;99.90
57753;DHT22;43583;53.132;6.574;2023-09-18T11:59:39;22.80;99.90
57753;DHT22;43583;53.132;6.574;2023-09-18T12:02:31;22.90;99.90
57753;DHT22;43583;53.132;6.574;2023-09-18T12:05:19;22.90;99.90
57753;DHT22;43583;53.132;6.574;2023-09-18T12:07:46;23.00;99.90
57753;DHT22;43583;53.132;6.574;2023-09-18T12:10:14;22.90;99.90
57753;DHT22;43583;53.132;6.574;2023-09-18T12:12:43;23.10;99.90
57753;DHT22;43583;53.132;6.574;2023-09-18T12:15:13;23.20;99.90
57753;DHT22;43583;53.132;6.574;2023-09-18T12:17:40;23.20;99.90
57753;DHT22;43583;53.132;6.574;2023-09-18T12:20:06;23.00;99.90
57753;DHT22;43583;53.132;6.574;2023-09-18T12:22:31;23.20;99.90
57753;DHT22;43583;53.132;6.574;2023-09-18T12:25:13;23.20;99.90
57753;DHT22;43583;53.132;6.574;2023-09-18T12:27:43;23.30;99.90
57753;DHT22;43583;53.132;6.574;2023-09-18T12:30:10;23.20;99.90
57753;DHT22;43583;53.132;6.574;2023-09-18T12:32:37;23.00;99.90
57753;DHT22;43583;53.132;6.574;2023-09-18T12:35:05;22.70;99.90
57753;DHT22;43583;53.132;6.574;2023-09-18T12:37:38;22.50;99.90
57753;DHT22;43583;53.132;6.574;2023-09-18T12:40:05;22.30;99.90
57753;DHT22;43583;53.132;6.574;2023-09-18T12:42:39;22.30;99.90
57753;DHT22;43583;53.132;6.574;2023-09-18T12:45:08;22.50;99.90
57753;DHT22;43583;53.132;6.574;2023-09-18T12:47:35;22.70;99.90
57753;DHT22;43583;53.132;6.574;2023-09-18T12:50:05;22.80;99.90
57753;DHT22;43583;53.132;6.574;2023-09-18T12:52:32;22.90;99.90
57753;DHT22;43583;53.132;6.574;2023-09-18T12:55:01;22.80;99.90
57753;DHT22;43583;53.132;6.574;2023-09-18T12:57:29;22.80;99.90
57753;DHT22;43583;53.132;6.574;2023-09-18T12:59:54;22.70;99.90
57753;DHT22;43583;53.132;6.574;2023-09-18T13:02:20;22.60;99.90
57753;DHT22;43583;53.132;6.574;2023-09-18T13:04:54;22.60;99.90
57753;DHT22;43583;53.132;6.574;2023-09-18T13:07:22;22.70;99.90
57753;DHT22;43583;53.132;6.574;2023-09-18T13:10:05;22.80;99.90
57753;DHT22;43583;53.132;6.574;2023-09-18T13:15:13;23.00;99.90
57753;DHT22;43583;53.132;6.574;2023-09-18T13:17:44;22.90;99.90
57753;DHT22;43583;53.132;6.574;2023-09-18T13:20:13;23.10;99.90
57753;DHT22;43583;53.132;6.574;2023-09-18T13:22:40;23.20;99.90
57753;DHT22;43583;53.132;6.574;2023-09-18T13:25:09;23.20;99.90
57753;DHT22;43583;53.132;6.574;2023-09-18T13:27:38;23.20;99.90
57753;DHT22;43583;53.132;6.574;2023-09-18T13:30:08;23.10;99.90
57753;DHT22;43583;53.132;6.574;2023-09-18T13:32:35;23.10;99.90
57753;DHT22;43583;53.132;6.574;2023-09-18T13:35:03;23.10;99.90
57753;DHT22;43583;53.132;6.574;2023-09-18T13:37:32;23.10;99.90
57753;DHT22;43583;53.132;6.574;2023-09-18T13:39:57;23.10;99.90
57753;DHT22;43583;53.132;6.574;2023-09-18T13:42:23;23.10;99.90
57753;DHT22;43583;53.132;6.574;2023-09-18T13:44:48;23.10;99.90
57753;DHT22;43583;53.132;6.574;2023-09-18T13:47:15;23.10;99.90
57753;DHT22;43583;53.132;6.574;2023-09-18T13:49:41;23.10;99.90
57753;DHT22;43583;53.132;6.574;2023-09-18T13:52:06;23.10;99.90
57753;DHT22;43583;53.132;6.574;2023-09-18T13:54:32;23.10;99.90
57753;DHT22;43583;53.132;6.574;2023-09-18T13:57:15;23.10;99.90
57753;DHT22;43583;53.132;6.574;2023-09-18T14:00:04;23.00;99.90
57753;DHT22;43583;53.132;6.574;2023-09-18T14:02:32;23.00;99.90
57753;DHT22;43583;53.132;6.574;2023-09-18T14:04:58;23.00;99.90
57753;DHT22;43583;53.132;6.574;2023-09-18T14:07:31;23.10;99.90
57753;DHT22;43583;53.132;6.574;2023-09-18T14:09:57;23.10;99.90
57753;DHT22;43583;53.132;6.574;2023-09-18T14:12:24;23.10;99.90
57753;DHT22;43583;53.132;6.574;2023-09-18T14:14:50;23.00;99.90
57753;DHT22;43583;53.132;6.574;2023-09-18T14:17:16;23.00;99.90
57753;DHT22;43583;53.132;6.574;2023-09-18T14:19:43;22.90;99.90
57753;DHT22;43583;53.132;6.574;2023-09-18T14:22:09;22.90;99.90
57753;DHT22;43583;53.132;6.574;2023-09-18T14:24:35;23.00;99.90
57753;DHT22;43583;53.132;6.574;2023-09-18T14:27:02;22.90;99.90
57753;DHT22;43583;53.132;6.574;2023-09-18T14:29:28;22.90;99.90
57753;DHT22;43583;53.132;6.574;2023-09-18T14:31:56;22.90;99.90
57753;DHT22;43583;53.132;6.574;2023-09-18T14:34:21;22.80;99.90
57753;DHT22;43583;53.132;6.574;2023-09-18T14:36:47;22.80;99.90
57753;DHT22;43583;53.132;6.574;2023-09-18T14:39:13;22.70;99.90
57753;DHT22;43583;53.132;6.574;2023-09-18T14:41:39;22.60;99.90
57753;DHT22;43583;53.132;6.574;2023-09-18T14:44:05;22.60;99.90
57753;DHT22;43583;53.132;6.574;2023-09-18T14:46:31;22.60;99.90
57753;DHT22;43583;53.132;6.574;2023-09-18T14:49:03;22.50;99.90
57753;DHT22;43583;53.132;6.574;2023-09-18T14:51:28;22.50;99.90
57753;DHT22;43583;53.132;6.574;2023-09-18T14:53:55;22.50;99.90
57753;DHT22;43583;53.132;6.574;2023-09-18T14:56:21;22.40;99.90
57753;DHT22;43583;53.132;6.574;2023-09-18T14:58:47;22.30;99.90
57753;DHT22;43583;53.132;6.574;2023-09-18T15:01:12;22.20;99.90
57753;DHT22;43583;53.132;6.574;2023-09-18T15:03:39;22.20;99.90
57753;DHT22;43583;53.132;6.574;2023-09-18T15:06:05;22.10;99.90
57753;DHT22;43583;53.132;6.574;2023-09-18T15:08:33;22.10;99.90
57753;DHT22;43583;53.132;6.574;2023-09-18T15:10:59;22.10;99.90
57753;DHT22;43583;53.132;6.574;2023-09-18T15:13:24;22.00;99.90
57753;DHT22;43583;53.132;6.574;2023-09-18T15:15:50;22.00;99.90
57753;DHT22;43583;53.132;6.574;2023-09-18T15:18:16;22.10;99.90
57753;DHT22;43583;53.132;6.574;2023-09-18T15:20:42;22.20;99.90
57753;DHT22;43583;53.132;6.574;2023-09-18T15:23:07;22.10;99.90
57753;DHT22;43583;53.132;6.574;2023-09-18T15:25:33;22.20;99.90
57753;DHT22;43583;53.132;6.574;2023-09-18T15:28:07;22.20;99.90
57753;DHT22;43583;53.132;6.574;2023-09-18T15:30:33;22.10;99.90
57753;DHT22;43583;53.132;6.574;2023-09-18T15:32:58;22.10;99.90
57753;DHT22;43583;53.132;6.574;2023-09-18T15:35:25;22.20;99.90
57753;DHT22;43583;53.132;6.574;2023-09-18T15:37:52;22.20;99.90
57753;DHT22;43583;53.132;6.574;2023-09-18T15:40:19;22.20;99.90
57753;DHT22;43583;53.132;6.574;2023-09-18T15:42:49;22.20;99.90
57753;DHT22;43583;53.132;6.574;2023-09-18T15:45:15;22.20;99.90
57753;DHT22;43583;53.132;6.574;2023-09-18T15:47:41;22.10;99.90
57753;DHT22;43583;53.132;6.574;2023-09-18T15:50:08;22.00;99.90
57753;DHT22;43583;53.132;6.574;2023-09-18T15:52:35;21.90;99.90
57753;DHT22;43583;53.132;6.574;2023-09-18T15:55:02;21.80;99.90
57753;DHT22;43583;53.132;6.574;2023-09-18T15:57:32;21.70;99.90
57753;DHT22;43583;53.132;6.574;2023-09-18T16:00:02;21.60;99.90
57753;DHT22;43583;53.132;6.574;2023-09-18T16:02:35;21.50;99.90
57753;DHT22;43583;53.132;6.574;2023-09-18T16:05:01;21.40;99.90
57753;DHT22;43583;53.132;6.574;2023-09-18T16:07:30;21.30;99.90
57753;DHT22;43583;53.132;6.574;2023-09-18T16:09:56;21.20;99.90
57753;DHT22;43583;53.132;6.574;2023-09-18T16:12:23;21.10;99.90
57753;DHT22;43583;53.132;6.574;2023-09-18T16:14:49;21.00;99.90
57753;DHT22;43583;53.132;6.574;2023-09-18T16:17:15;21.00;99.90
57753;DHT22;43583;53.132;6.574;2023-09-18T16:19:42;20.90;99.90
57753;DHT22;43583;53.132;6.574;2023-09-18T16:22:08;20.90;99.90
57753;DHT22;43583;53.132;6.574;2023-09-18T16:24:37;20.80;99.90
57753;DHT22;43583;53.132;6.574;2023-09-18T16:27:03;20.80;99.90
57753;DHT22;43583;53.132;6.574;2023-09-18T16:29:30;20.70;99.90
57753;DHT22;43583;53.132;6.574;2023-09-18T16:31:56;20.70;99.90
57753;DHT22;43583;53.132;6.574;2023-09-18T16:34:21;20.60;99.90
57753;DHT22;43583;53.132;6.574;2023-09-18T16:36:50;20.60;99.90
57753;DHT22;43583;53.132;6.574;2023-09-18T16:39:16;20.50;99.90
57753;DHT22;43583;53.132;6.574;2023-09-18T16:41:45;20.50;99.90
57753;DHT22;43583;53.132;6.574;2023-09-18T16:44:11;20.40;99.90
57753;DHT22;43583;53.132;6.574;2023-09-18T16:46:37;20.40;99.90
57753;DHT22;43583;53.132;6.574;2023-09-18T16:49:03;20.30;99.90
57753;DHT22;43583;53.132;6.574;2023-09-18T16:51:33;20.30;99.90
57753;DHT22;43583;53.132;6.574;2023-09-18T16:53:59;20.30;99.90
57753;DHT22;43583;53.132;6.574;2023-09-18T16:56:26;20.30;99.90
57753;DHT22;43583;53.132;6.574;2023-09-18T16:58:52;20.20;99.90
57753;DHT22;43583;53.132;6.574;2023-09-18T17:01:18;20.20;99.90
57753;DHT22;43583;53.132;6.574;2023-09-18T17:03:43;20.20;99.90
57753;DHT22;43583;53.132;6.574;2023-09-18T17:06:12;20.20;99.90
57753;DHT22;43583;53.132;6.574;2023-09-18T17:08:38;20.10;99.90
57753;DHT22;43583;53.132;6.574;2023-09-18T17:11:05;19.90;99.90
57753;DHT22;43583;53.132;6.574;2023-09-18T17:13:33;19.80;99.90
57753;DHT22;43583;53.132;6.574;2023-09-18T17:16:00;19.60;99.90
57753;DHT22;43583;53.132;6.574;2023-09-18T17:18:26;19.40;99.90
57753;DHT22;43583;53.132;6.574;2023-09-18T17:20:52;19.20;99.90
57753;DHT22;43583;53.132;6.574;2023-09-18T17:23:17;19.20;99.90
57753;DHT22;43583;53.132;6.574;2023-09-18T17:25:44;19.00;99.90
57753;DHT22;43583;53.132;6.574;2023-09-18T17:28:12;18.90;99.90
57753;DHT22;43583;53.132;6.574;2023-09-18T17:30:43;18.80;99.90
57753;DHT22;43583;53.132;6.574;2023-09-18T17:33:08;18.70;99.90
57753;DHT22;43583;53.132;6.574;2023-09-18T17:35:34;18.60;99.90
57753;DHT22;43583;53.132;6.574;2023-09-18T17:38:00;18.50;99.90
57753;DHT22;43583;53.132;6.574;2023-09-18T17:40:26;18.50;99.90
57753;DHT22;43583;53.132;6.574;2023-09-18T17:42:51;18.40;99.90
57753;DHT22;43583;53.132;6.574;2023-09-18T17:45:18;18.30;99.90
57753;DHT22;43583;53.132;6.574;2023-09-18T17:47:45;18.20;99.90
57753;DHT22;43583;53.132;6.574;2023-09-18T17:50:11;18.20;99.90
57753;DHT22;43583;53.132;6.574;2023-09-18T17:52:38;18.10;99.90
57753;DHT22;43583;53.132;6.574;2023-09-18T17:55:05;18.10;99.90
57753;DHT22;43583;53.132;6.574;2023-09-18T17:57:32;18.00;99.90
57753;DHT22;43583;53.132;6.574;2023-09-18T17:59:59;18.00;99.90
57753;DHT22;43583;53.132;6.574;2023-09-18T18:02:25;17.90;99.90
57753;DHT22;43583;53.132;6.574;2023-09-18T18:04:52;17.80;99.90
57753;DHT22;43583;53.132;6.574;2023-09-18T18:07:18;17.70;99.90
57753;DHT22;43583;53.132;6.574;2023-09-18T18:09:43;17.70;99.90
57753;DHT22;43583;53.132;6.574;2023-09-18T18:12:09;17.70;99.90
57753;DHT22;43583;53.132;6.574;2023-09-18T18:14:34;17.70;99.90
57753;DHT22;43583;53.132;6.574;2023-09-18T18:17:00;17.60;99.90
57753;DHT22;43583;53.132;6.574;2023-09-18T18:19:28;17.60;99.90
57753;DHT22;43583;53.132;6.574;2023-09-18T18:21:53;17.60;99.90
57753;DHT22;43583;53.132;6.574;2023-09-18T18:24:19;17.60;99.90
57753;DHT22;43583;53.132;6.574;2023-09-18T18:26:46;17.60;99.90
57753;DHT22;43583;53.132;6.574;2023-09-18T18:29:12;17.60;99.90
57753;DHT22;43583;53.132;6.574;2023-09-18T18:31:38;17.60;99.90
57753;DHT22;43583;53.132;6.574;2023-09-18T18:34:06;17.60;99.90
57753;DHT22;43583;53.132;6.574;2023-09-18T18:36:32;17.50;99.90
57753;DHT22;43583;53.132;6.574;2023-09-18T18:38:57;17.50;99.90
57753;DHT22;43583;53.132;6.574;2023-09-18T18:41:24;17.50;99.90
57753;DHT22;43583;53.132;6.574;2023-09-18T18:43:51;17.50;99.90
57753;DHT22;43583;53.132;6.574;2023-09-18T18:46:16;17.50;99.90
57753;DHT22;43583;53.132;6.574;2023-09-18T18:48:42;17.40;99.90
57753;DHT22;43583;53.132;6.574;2023-09-18T18:51:13;17.40;99.90